Egham, United Kingdom
Current Conditions -  °F | °C
As of 6:20 PM on Sunday 25 Jan 2015 (Local Time) from EGLL Reporting Station
Broken Clouds Broken Clouds  
Wind Chill: 42°   Ceiling: 1800
Heat Index: 46°   Visibility: 6mi
Dew Point: 39°   Wind: 8mph
Humidity: 76%   Direction: 240°WSW
Pressure: 30.36"   Gusts: NA
Location:  51.43°N, 0.55°W
Report Text: EGLL 251820Z 24007KT 9999 BKN018 08/04 Q1028 TEMPO BKN014
Loading
Personal Weather Stations






























Interactive Weather Map New forecast layout! Learn more

10-Day Weather Forecast

Advertisements
Track Severe Weather on mobile